YCOP weather

Copmanhurst Oval Helipad
Copmanhurst, New South Wales, Australia

Public forecast

Using degrees Celsius for public forecast. Weather courtesy of forecast.io.

Closest aviation weather report (METAR) to Copmanhurst Oval Helipad

Closest report is Grafton Airport, 16.9 nm (31.2 km) SE. Retrieved 2019/10/17 14:00 UTC (40 minutes ago):

YGFN 171400Z AUTO 21004KT 9999 // NCD 21/04 Q1013

Closest aviation forecast (TAF) to Copmanhurst Oval Helipad

Closest forecast is Gold Coast Airport, 93.8 nm (173.7 km) NNE. Retrieved 2019/10/17 12:00 UTC (3 hours ago):

TAF YBCG 171119Z 1712/1812 31010KT 9999 FEW035 FM171700 17012KT 9999 SCT018 FM172100 15013KT 9999 SCT030